sensor_id;sensor_type;location;lat;lon;timestamp;P1;durP1;ratioP1;P2;durP2;ratioP2
46284;SDS011;32018;59.182;18.148;2022-07-17T00:02:04;0.10;;;0.10;;
46284;SDS011;32018;59.182;18.148;2022-07-17T00:04:30;0.20;;;0.10;;
46284;SDS011;32018;59.182;18.148;2022-07-17T00:06:55;0.10;;;0.10;;
46284;SDS011;32018;59.182;18.148;2022-07-17T00:09:20;0.10;;;0.10;;
46284;SDS011;32018;59.182;18.148;2022-07-17T00:11:46;0.00;;;0.00;;
46284;SDS011;32018;59.182;18.148;2022-07-17T00:14:11;0.10;;;0.10;;
46284;SDS011;32018;59.182;18.148;2022-07-17T00:16:37;0.00;;;0.00;;
46284;SDS011;32018;59.182;18.148;2022-07-17T00:19:02;0.07;;;0.07;;
46284;SDS011;32018;59.182;18.148;2022-07-17T00:21:28;0.10;;;0.10;;
46284;SDS011;32018;59.182;18.148;2022-07-17T00:23:53;0.10;;;0.10;;
46284;SDS011;32018;59.182;18.148;2022-07-17T00:26:18;0.00;;;0.00;;
46284;SDS011;32018;59.182;18.148;2022-07-17T00:28:44;0.00;;;0.00;;
46284;SDS011;32018;59.182;18.148;2022-07-17T00:31:09;0.00;;;0.00;;
46284;SDS011;32018;59.182;18.148;2022-07-17T00:33:34;0.03;;;0.03;;
46284;SDS011;32018;59.182;18.148;2022-07-17T00:36:00;0.00;;;0.00;;
46284;SDS011;32018;59.182;18.148;2022-07-17T00:38:25;0.00;;;0.00;;
46284;SDS011;32018;59.182;18.148;2022-07-17T00:40:53;0.00;;;0.00;;
46284;SDS011;32018;59.182;18.148;2022-07-17T00:43:18;0.10;;;0.05;;
46284;SDS011;32018;59.182;18.148;2022-07-17T00:45:44;0.00;;;0.00;;
46284;SDS011;32018;59.182;18.148;2022-07-17T00:48:09;0.07;;;0.07;;
46284;SDS011;32018;59.182;18.148;2022-07-17T00:50:36;0.10;;;0.10;;
46284;SDS011;32018;59.182;18.148;2022-07-17T00:53:02;0.08;;;0.08;;
46284;SDS011;32018;59.182;18.148;2022-07-17T00:55:28;0.00;;;0.00;;
46284;SDS011;32018;59.182;18.148;2022-07-17T00:57:54;0.10;;;0.10;;
46284;SDS011;32018;59.182;18.148;2022-07-17T01:00:20;0.45;;;0.15;;
46284;SDS011;32018;59.182;18.148;2022-07-17T01:02:47;0.10;;;0.10;;
46284;SDS011;32018;59.182;18.148;2022-07-17T01:05:13;0.00;;;0.00;;
46284;SDS011;32018;59.182;18.148;2022-07-17T01:07:38;0.08;;;0.08;;
46284;SDS011;32018;59.182;18.148;2022-07-17T01:10:03;0.20;;;0.00;;
46284;SDS011;32018;59.182;18.148;2022-07-17T01:12:29;0.00;;;0.00;;
46284;SDS011;32018;59.182;18.148;2022-07-17T01:14:55;0.10;;;0.10;;
46284;SDS011;32018;59.182;18.148;2022-07-17T01:17:20;0.00;;;0.00;;
46284;SDS011;32018;59.182;18.148;2022-07-17T01:19:45;0.00;;;0.00;;
46284;SDS011;32018;59.182;18.148;2022-07-17T01:22:11;0.10;;;0.10;;
46284;SDS011;32018;59.182;18.148;2022-07-17T01:24:40;0.30;;;0.00;;
46284;SDS011;32018;59.182;18.148;2022-07-17T01:27:05;0.00;;;0.00;;
46284;SDS011;32018;59.182;18.148;2022-07-17T01:29:31;0.10;;;0.10;;
46284;SDS011;32018;59.182;18.148;2022-07-17T01:31:56;0.00;;;0.00;;
46284;SDS011;32018;59.182;18.148;2022-07-17T01:34:21;0.00;;;0.00;;
46284;SDS011;32018;59.182;18.148;2022-07-17T01:36:47;0.10;;;0.10;;
46284;SDS011;32018;59.182;18.148;2022-07-17T01:39:12;0.10;;;0.10;;
46284;SDS011;32018;59.182;18.148;2022-07-17T01:41:37;0.00;;;0.00;;
46284;SDS011;32018;59.182;18.148;2022-07-17T01:44:03;0.10;;;0.10;;
46284;SDS011;32018;59.182;18.148;2022-07-17T01:46:29;0.10;;;0.10;;
46284;SDS011;32018;59.182;18.148;2022-07-17T01:48:54;0.00;;;0.00;;
46284;SDS011;32018;59.182;18.148;2022-07-17T01:51:19;0.00;;;0.00;;
46284;SDS011;32018;59.182;18.148;2022-07-17T01:53:44;0.00;;;0.00;;
46284;SDS011;32018;59.182;18.148;2022-07-17T01:56:10;0.00;;;0.00;;
46284;SDS011;32018;59.182;18.148;2022-07-17T01:58:35;0.00;;;0.00;;
46284;SDS011;32018;59.182;18.148;2022-07-17T02:01:00;0.00;;;0.00;;
46284;SDS011;32018;59.182;18.148;2022-07-17T02:03:25;0.10;;;0.10;;
46284;SDS011;32018;59.182;18.148;2022-07-17T02:05:51;0.00;;;0.00;;
46284;SDS011;32018;59.182;18.148;2022-07-17T02:08:16;0.00;;;0.00;;
46284;SDS011;32018;59.182;18.148;2022-07-17T02:10:41;0.10;;;0.10;;
46284;SDS011;32018;59.182;18.148;2022-07-17T02:13:07;0.00;;;0.00;;
46284;SDS011;32018;59.182;18.148;2022-07-17T02:15:33;0.00;;;0.00;;
46284;SDS011;32018;59.182;18.148;2022-07-17T02:17:58;0.00;;;0.00;;
46284;SDS011;32018;59.182;18.148;2022-07-17T02:20:24;0.08;;;0.08;;
46284;SDS011;32018;59.182;18.148;2022-07-17T02:22:49;0.00;;;0.00;;
46284;SDS011;32018;59.182;18.148;2022-07-17T02:25:14;0.00;;;0.00;;
46284;SDS011;32018;59.182;18.148;2022-07-17T02:27:40;0.00;;;0.00;;
46284;SDS011;32018;59.182;18.148;2022-07-17T02:30:07;0.10;;;0.10;;
46284;SDS011;32018;59.182;18.148;2022-07-17T02:32:33;0.32;;;0.20;;
46284;SDS011;32018;59.182;18.148;2022-07-17T02:34:58;0.00;;;0.00;;
46284;SDS011;32018;59.182;18.148;2022-07-17T02:37:23;0.03;;;0.03;;
46284;SDS011;32018;59.182;18.148;2022-07-17T02:39:48;0.10;;;0.10;;
46284;SDS011;32018;59.182;18.148;2022-07-17T02:42:23;0.10;;;0.00;;
46284;SDS011;32018;59.182;18.148;2022-07-17T02:44:48;0.10;;;0.10;;
46284;SDS011;32018;59.182;18.148;2022-07-17T02:47:21;0.00;;;0.00;;
46284;SDS011;32018;59.182;18.148;2022-07-17T02:49:46;0.10;;;0.00;;
46284;SDS011;32018;59.182;18.148;2022-07-17T02:52:12;0.10;;;0.10;;
46284;SDS011;32018;59.182;18.148;2022-07-17T02:54:37;0.00;;;0.00;;
46284;SDS011;32018;59.182;18.148;2022-07-17T02:57:02;0.00;;;0.00;;
46284;SDS011;32018;59.182;18.148;2022-07-17T02:59:27;0.00;;;0.00;;
46284;SDS011;32018;59.182;18.148;2022-07-17T03:01:53;0.00;;;0.00;;
46284;SDS011;32018;59.182;18.148;2022-07-17T03:04:18;0.00;;;0.00;;
46284;SDS011;32018;59.182;18.148;2022-07-17T03:06:43;0.00;;;0.00;;
46284;SDS011;32018;59.182;18.148;2022-07-17T03:09:09;0.00;;;0.00;;
46284;SDS011;32018;59.182;18.148;2022-07-17T03:11:34;1.10;;;0.30;;
46284;SDS011;32018;59.182;18.148;2022-07-17T03:13:59;0.10;;;0.10;;
46284;SDS011;32018;59.182;18.148;2022-07-17T03:16:24;0.08;;;0.08;;
46284;SDS011;32018;59.182;18.148;2022-07-17T03:18:50;0.10;;;0.10;;
46284;SDS011;32018;59.182;18.148;2022-07-17T03:21:15;0.10;;;0.00;;
46284;SDS011;32018;59.182;18.148;2022-07-17T03:23:40;0.00;;;0.00;;
46284;SDS011;32018;59.182;18.148;2022-07-17T03:26:05;0.10;;;0.00;;
46284;SDS011;32018;59.182;18.148;2022-07-17T03:28:31;0.10;;;0.10;;
46284;SDS011;32018;59.182;18.148;2022-07-17T03:30:56;0.10;;;0.10;;
46284;SDS011;32018;59.182;18.148;2022-07-17T03:33:21;0.00;;;0.00;;
46284;SDS011;32018;59.182;18.148;2022-07-17T03:35:46;0.10;;;0.08;;
46284;SDS011;32018;59.182;18.148;2022-07-17T03:38:12;0.10;;;0.10;;
46284;SDS011;32018;59.182;18.148;2022-07-17T03:40:37;0.10;;;0.10;;
46284;SDS011;32018;59.182;18.148;2022-07-17T03:43:02;0.10;;;0.10;;
46284;SDS011;32018;59.182;18.148;2022-07-17T03:45:27;0.20;;;0.10;;
46284;SDS011;32018;59.182;18.148;2022-07-17T03:47:53;0.00;;;0.00;;
46284;SDS011;32018;59.182;18.148;2022-07-17T03:50:18;0.10;;;0.10;;
46284;SDS011;32018;59.182;18.148;2022-07-17T03:52:43;0.10;;;0.10;;
46284;SDS011;32018;59.182;18.148;2022-07-17T03:55:09;0.20;;;0.20;;
46284;SDS011;32018;59.182;18.148;2022-07-17T03:57:34;0.03;;;0.03;;
46284;SDS011;32018;59.182;18.148;2022-07-17T03:59:59;0.00;;;0.00;;
46284;SDS011;32018;59.182;18.148;2022-07-17T04:02:24;0.20;;;0.10;;
46284;SDS011;32018;59.182;18.148;2022-07-17T04:04:50;0.00;;;0.00;;
46284;SDS011;32018;59.182;18.148;2022-07-17T04:07:15;0.10;;;0.00;;
46284;SDS011;32018;59.182;18.148;2022-07-17T04:09:55;0.08;;;0.08;;
46284;SDS011;32018;59.182;18.148;2022-07-17T04:12:21;0.10;;;0.10;;
46284;SDS011;32018;59.182;18.148;2022-07-17T04:14:47;0.10;;;0.10;;
46284;SDS011;32018;59.182;18.148;2022-07-17T04:17:12;0.13;;;0.13;;
46284;SDS011;32018;59.182;18.148;2022-07-17T04:19:37;0.40;;;0.20;;
46284;SDS011;32018;59.182;18.148;2022-07-17T04:22:02;0.20;;;0.20;;
46284;SDS011;32018;59.182;18.148;2022-07-17T04:24:28;0.30;;;0.30;;
46284;SDS011;32018;59.182;18.148;2022-07-17T04:26:53;0.63;;;0.30;;
46284;SDS011;32018;59.182;18.148;2022-07-17T04:29:18;0.40;;;0.22;;
46284;SDS011;32018;59.182;18.148;2022-07-17T04:31:43;0.35;;;0.32;;
46284;SDS011;32018;59.182;18.148;2022-07-17T04:34:09;0.70;;;0.50;;
46284;SDS011;32018;59.182;18.148;2022-07-17T04:36:34;0.10;;;0.10;;
46284;SDS011;32018;59.182;18.148;2022-07-17T04:39:00;0.40;;;0.40;;
46284;SDS011;32018;59.182;18.148;2022-07-17T04:41:25;0.10;;;0.10;;
46284;SDS011;32018;59.182;18.148;2022-07-17T04:43:51;0.13;;;0.10;;
46284;SDS011;32018;59.182;18.148;2022-07-17T04:46:16;0.38;;;0.05;;
46284;SDS011;32018;59.182;18.148;2022-07-17T04:48:41;0.10;;;0.10;;
46284;SDS011;32018;59.182;18.148;2022-07-17T04:51:07;0.10;;;0.10;;
46284;SDS011;32018;59.182;18.148;2022-07-17T04:53:32;0.20;;;0.10;;
46284;SDS011;32018;59.182;18.148;2022-07-17T04:55:58;0.10;;;0.10;;
46284;SDS011;32018;59.182;18.148;2022-07-17T04:58:24;0.10;;;0.00;;
46284;SDS011;32018;59.182;18.148;2022-07-17T05:00:49;0.00;;;0.00;;
46284;SDS011;32018;59.182;18.148;2022-07-17T05:03:14;0.50;;;0.17;;
46284;SDS011;32018;59.182;18.148;2022-07-17T05:05:39;0.10;;;0.10;;
46284;SDS011;32018;59.182;18.148;2022-07-17T05:08:05;0.90;;;0.80;;
46284;SDS011;32018;59.182;18.148;2022-07-17T05:10:30;0.40;;;0.38;;
46284;SDS011;32018;59.182;18.148;2022-07-17T05:12:55;0.20;;;0.20;;
46284;SDS011;32018;59.182;18.148;2022-07-17T05:15:21;0.80;;;0.75;;
46284;SDS011;32018;59.182;18.148;2022-07-17T05:17:46;0.47;;;0.47;;
46284;SDS011;32018;59.182;18.148;2022-07-17T05:20:11;2.30;;;2.10;;
46284;SDS011;32018;59.182;18.148;2022-07-17T05:22:37;2.42;;;1.88;;
46284;SDS011;32018;59.182;18.148;2022-07-17T05:25:02;0.65;;;0.57;;
46284;SDS011;32018;59.182;18.148;2022-07-17T05:27:27;2.63;;;2.17;;
46284;SDS011;32018;59.182;18.148;2022-07-17T05:29:53;1.50;;;1.40;;
46284;SDS011;32018;59.182;18.148;2022-07-17T05:32:20;1.88;;;1.42;;
46284;SDS011;32018;59.182;18.148;2022-07-17T05:34:45;1.70;;;1.20;;
46284;SDS011;32018;59.182;18.148;2022-07-17T05:37:10;1.40;;;1.15;;
46284;SDS011;32018;59.182;18.148;2022-07-17T05:39:35;1.13;;;0.93;;
46284;SDS011;32018;59.182;18.148;2022-07-17T05:42:01;1.50;;;1.10;;
46284;SDS011;32018;59.182;18.148;2022-07-17T05:44:26;1.73;;;1.63;;
46284;SDS011;32018;59.182;18.148;2022-07-17T05:46:51;0.60;;;0.60;;
46284;SDS011;32018;59.182;18.148;2022-07-17T05:49:17;0.73;;;0.73;;
46284;SDS011;32018;59.182;18.148;2022-07-17T05:51:42;1.08;;;0.98;;
46284;SDS011;32018;59.182;18.148;2022-07-17T05:54:07;1.73;;;1.63;;
46284;SDS011;32018;59.182;18.148;2022-07-17T05:56:32;2.95;;;2.65;;
46284;SDS011;32018;59.182;18.148;2022-07-17T05:58:58;2.28;;;2.08;;
46284;SDS011;32018;59.182;18.148;2022-07-17T06:01:23;1.20;;;1.05;;
46284;SDS011;32018;59.182;18.148;2022-07-17T06:03:48;1.10;;;1.00;;
46284;SDS011;32018;59.182;18.148;2022-07-17T06:06:13;1.20;;;1.03;;
46284;SDS011;32018;59.182;18.148;2022-07-17T06:08:39;0.70;;;0.60;;
46284;SDS011;32018;59.182;18.148;2022-07-17T06:11:04;0.40;;;0.40;;
46284;SDS011;32018;59.182;18.148;2022-07-17T06:13:29;0.20;;;0.20;;
46284;SDS011;32018;59.182;18.148;2022-07-17T06:15:54;0.50;;;0.50;;
46284;SDS011;32018;59.182;18.148;2022-07-17T06:18:24;0.70;;;0.57;;
46284;SDS011;32018;59.182;18.148;2022-07-17T06:20:49;0.85;;;0.70;;
46284;SDS011;32018;59.182;18.148;2022-07-17T06:23:14;0.93;;;0.70;;
46284;SDS011;32018;59.182;18.148;2022-07-17T06:25:40;0.80;;;0.70;;
46284;SDS011;32018;59.182;18.148;2022-07-17T06:28:05;2.88;;;1.23;;
46284;SDS011;32018;59.182;18.148;2022-07-17T06:30:31;1.30;;;1.20;;
46284;SDS011;32018;59.182;18.148;2022-07-17T06:32:56;0.60;;;0.55;;
46284;SDS011;32018;59.182;18.148;2022-07-17T06:35:21;1.20;;;1.10;;
46284;SDS011;32018;59.182;18.148;2022-07-17T06:37:47;1.60;;;1.50;;
46284;SDS011;32018;59.182;18.148;2022-07-17T06:40:12;0.83;;;0.67;;
46284;SDS011;32018;59.182;18.148;2022-07-17T06:42:37;0.50;;;0.50;;
46284;SDS011;32018;59.182;18.148;2022-07-17T06:45:02;0.68;;;0.55;;
46284;SDS011;32018;59.182;18.148;2022-07-17T06:47:28;0.30;;;0.22;;
46284;SDS011;32018;59.182;18.148;2022-07-17T06:49:53;0.35;;;0.35;;
46284;SDS011;32018;59.182;18.148;2022-07-17T06:52:18;0.43;;;0.40;;
46284;SDS011;32018;59.182;18.148;2022-07-17T06:54:44;0.30;;;0.30;;
46284;SDS011;32018;59.182;18.148;2022-07-17T06:57:09;0.30;;;0.30;;
46284;SDS011;32018;59.182;18.148;2022-07-17T06:59:34;0.20;;;0.20;;
46284;SDS011;32018;59.182;18.148;2022-07-17T07:01:59;0.32;;;0.13;;
46284;SDS011;32018;59.182;18.148;2022-07-17T07:04:25;1.00;;;0.10;;
46284;SDS011;32018;59.182;18.148;2022-07-17T07:06:50;0.10;;;0.00;;
46284;SDS011;32018;59.182;18.148;2022-07-17T07:09:15;0.65;;;0.20;;
46284;SDS011;32018;59.182;18.148;2022-07-17T07:11:40;0.65;;;0.30;;
46284;SDS011;32018;59.182;18.148;2022-07-17T07:14:06;0.15;;;0.10;;
46284;SDS011;32018;59.182;18.148;2022-07-17T07:16:32;0.00;;;0.00;;
46284;SDS011;32018;59.182;18.148;2022-07-17T07:18:57;0.10;;;0.10;;
46284;SDS011;32018;59.182;18.148;2022-07-17T07:21:23;0.10;;;0.03;;
46284;SDS011;32018;59.182;18.148;2022-07-17T07:23:49;0.15;;;0.15;;
46284;SDS011;32018;59.182;18.148;2022-07-17T07:26:15;0.10;;;0.10;;
46284;SDS011;32018;59.182;18.148;2022-07-17T07:28:40;0.10;;;0.10;;
46284;SDS011;32018;59.182;18.148;2022-07-17T07:31:06;0.20;;;0.07;;
46284;SDS011;32018;59.182;18.148;2022-07-17T07:33:31;0.10;;;0.10;;
46284;SDS011;32018;59.182;18.148;2022-07-17T07:35:56;0.10;;;0.10;;
46284;SDS011;32018;59.182;18.148;2022-07-17T07:38:22;0.28;;;0.10;;
46284;SDS011;32018;59.182;18.148;2022-07-17T07:40:47;0.80;;;0.10;;
46284;SDS011;32018;59.182;18.148;2022-07-17T07:43:12;0.10;;;0.10;;
46284;SDS011;32018;59.182;18.148;2022-07-17T07:45:37;0.10;;;0.00;;
46284;SDS011;32018;59.182;18.148;2022-07-17T07:48:03;0.10;;;0.10;;
46284;SDS011;32018;59.182;18.148;2022-07-17T07:50:28;0.10;;;0.10;;
46284;SDS011;32018;59.182;18.148;2022-07-17T07:52:54;0.00;;;0.00;;
46284;SDS011;32018;59.182;18.148;2022-07-17T07:55:19;0.10;;;0.10;;
46284;SDS011;32018;59.182;18.148;2022-07-17T07:57:46;0.28;;;0.10;;
46284;SDS011;32018;59.182;18.148;2022-07-17T08:00:11;0.10;;;0.10;;
46284;SDS011;32018;59.182;18.148;2022-07-17T08:02:37;0.10;;;0.10;;
46284;SDS011;32018;59.182;18.148;2022-07-17T08:05:02;0.45;;;0.10;;
46284;SDS011;32018;59.182;18.148;2022-07-17T08:07:28;0.15;;;0.10;;
46284;SDS011;32018;59.182;18.148;2022-07-17T08:09:53;0.10;;;0.10;;
46284;SDS011;32018;59.182;18.148;2022-07-17T08:12:19;0.10;;;0.10;;
46284;SDS011;32018;59.182;18.148;2022-07-17T08:14:45;0.05;;;0.05;;
46284;SDS011;32018;59.182;18.148;2022-07-17T08:17:10;0.22;;;0.10;;
46284;SDS011;32018;59.182;18.148;2022-07-17T08:19:35;0.10;;;0.10;;
46284;SDS011;32018;59.182;18.148;2022-07-17T08:22:01;0.20;;;0.20;;
46284;SDS011;32018;59.182;18.148;2022-07-17T08:24:26;0.00;;;0.00;;
46284;SDS011;32018;59.182;18.148;2022-07-17T08:26:51;0.40;;;0.03;;
46284;SDS011;32018;59.182;18.148;2022-07-17T08:29:17;0.20;;;0.20;;
46284;SDS011;32018;59.182;18.148;2022-07-17T08:31:42;0.38;;;0.05;;
46284;SDS011;32018;59.182;18.148;2022-07-17T08:34:08;0.10;;;0.10;;
46284;SDS011;32018;59.182;18.148;2022-07-17T08:36:33;0.10;;;0.00;;
46284;SDS011;32018;59.182;18.148;2022-07-17T08:38:58;0.00;;;0.00;;
46284;SDS011;32018;59.182;18.148;2022-07-17T08:41:24;0.05;;;0.05;;
46284;SDS011;32018;59.182;18.148;2022-07-17T08:43:49;0.10;;;0.10;;
46284;SDS011;32018;59.182;18.148;2022-07-17T08:46:16;0.10;;;0.10;;
46284;SDS011;32018;59.182;18.148;2022-07-17T08:48:42;0.10;;;0.10;;
46284;SDS011;32018;59.182;18.148;2022-07-17T08:51:09;0.00;;;0.00;;
46284;SDS011;32018;59.182;18.148;2022-07-17T08:53:36;0.85;;;0.10;;
46284;SDS011;32018;59.182;18.148;2022-07-17T08:56:02;0.10;;;0.10;;
46284;SDS011;32018;59.182;18.148;2022-07-17T08:58:27;0.10;;;0.00;;
46284;SDS011;32018;59.182;18.148;2022-07-17T09:00:52;0.10;;;0.10;;
46284;SDS011;32018;59.182;18.148;2022-07-17T09:03:18;0.00;;;0.00;;
46284;SDS011;32018;59.182;18.148;2022-07-17T09:05:43;0.43;;;0.10;;
46284;SDS011;32018;59.182;18.148;2022-07-17T09:08:17;0.03;;;0.03;;
46284;SDS011;32018;59.182;18.148;2022-07-17T09:10:45;0.10;;;0.10;;
46284;SDS011;32018;59.182;18.148;2022-07-17T09:13:14;0.05;;;0.05;;
46284;SDS011;32018;59.182;18.148;2022-07-17T09:15:39;0.00;;;0.00;;
46284;SDS011;32018;59.182;18.148;2022-07-17T09:18:05;0.03;;;0.00;;
46284;SDS011;32018;59.182;18.148;2022-07-17T09:20:30;0.00;;;0.00;;
46284;SDS011;32018;59.182;18.148;2022-07-17T09:23:00;0.00;;;0.00;;
46284;SDS011;32018;59.182;18.148;2022-07-17T09:25:42;0.08;;;0.08;;
46284;SDS011;32018;59.182;18.148;2022-07-17T09:28:09;0.10;;;0.08;;
46284;SDS011;32018;59.182;18.148;2022-07-17T09:30:40;0.00;;;0.00;;
46284;SDS011;32018;59.182;18.148;2022-07-17T09:35:30;1.38;;;0.00;;
46284;SDS011;32018;59.182;18.148;2022-07-17T09:37:56;0.10;;;0.00;;
46284;SDS011;32018;59.182;18.148;2022-07-17T09:40:22;0.10;;;0.00;;
46284;SDS011;32018;59.182;18.148;2022-07-17T09:43:06;0.08;;;0.08;;
46284;SDS011;32018;59.182;18.148;2022-07-17T09:45:35;0.13;;;0.10;;
46284;SDS011;32018;59.182;18.148;2022-07-17T09:48:01;0.55;;;0.13;;
46284;SDS011;32018;59.182;18.148;2022-07-17T09:50:26;0.63;;;0.10;;
46284;SDS011;32018;59.182;18.148;2022-07-17T09:52:52;0.00;;;0.00;;
46284;SDS011;32018;59.182;18.148;2022-07-17T09:55:17;1.17;;;0.00;;
46284;SDS011;32018;59.182;18.148;2022-07-17T09:57:44;0.10;;;0.10;;
46284;SDS011;32018;59.182;18.148;2022-07-17T10:00:12;0.00;;;0.00;;
46284;SDS011;32018;59.182;18.148;2022-07-17T10:02:41;0.10;;;0.00;;
46284;SDS011;32018;59.182;18.148;2022-07-17T10:05:07;0.10;;;0.10;;
46284;SDS011;32018;59.182;18.148;2022-07-17T10:07:36;0.93;;;0.10;;
46284;SDS011;32018;59.182;18.148;2022-07-17T10:10:02;0.10;;;0.10;;
46284;SDS011;32018;59.182;18.148;2022-07-17T10:12:27;0.10;;;0.10;;
46284;SDS011;32018;59.182;18.148;2022-07-17T10:14:52;0.10;;;0.00;;
46284;SDS011;32018;59.182;18.148;2022-07-17T10:17:21;0.13;;;0.00;;
46284;SDS011;32018;59.182;18.148;2022-07-17T10:19:47;0.10;;;0.10;;
46284;SDS011;32018;59.182;18.148;2022-07-17T10:22:13;0.10;;;0.03;;
46284;SDS011;32018;59.182;18.148;2022-07-17T10:24:46;0.08;;;0.08;;
46284;SDS011;32018;59.182;18.148;2022-07-17T10:29:46;0.85;;;0.00;;
46284;SDS011;32018;59.182;18.148;2022-07-17T10:32:18;0.40;;;0.00;;
46284;SDS011;32018;59.182;18.148;2022-07-17T10:34:47;0.10;;;0.10;;
46284;SDS011;32018;59.182;18.148;2022-07-17T10:37:23;0.10;;;0.10;;
46284;SDS011;32018;59.182;18.148;2022-07-17T10:40:31;0.10;;;0.10;;
46284;SDS011;32018;59.182;18.148;2022-07-17T10:42:38;0.70;;;0.00;;
46284;SDS011;32018;59.182;18.148;2022-07-17T10:45:22;0.30;;;0.10;;
46284;SDS011;32018;59.182;18.148;2022-07-17T10:47:49;0.00;;;0.00;;
46284;SDS011;32018;59.182;18.148;2022-07-17T10:50:16;0.10;;;0.10;;
46284;SDS011;32018;59.182;18.148;2022-07-17T10:52:41;0.00;;;0.00;;
46284;SDS011;32018;59.182;18.148;2022-07-17T10:55:16;0.00;;;0.00;;
46284;SDS011;32018;59.182;18.148;2022-07-17T10:57:42;0.00;;;0.00;;
46284;SDS011;32018;59.182;18.148;2022-07-17T11:00:07;0.00;;;0.00;;
46284;SDS011;32018;59.182;18.148;2022-07-17T11:02:33;0.57;;;0.05;;
46284;SDS011;32018;59.182;18.148;2022-07-17T11:05:08;0.25;;;0.00;;
46284;SDS011;32018;59.182;18.148;2022-07-17T11:07:33;0.00;;;0.00;;
46284;SDS011;32018;59.182;18.148;2022-07-17T11:09:58;0.00;;;0.00;;
46284;SDS011;32018;59.182;18.148;2022-07-17T11:12:34;0.10;;;0.00;;
46284;SDS011;32018;59.182;18.148;2022-07-17T11:15:24;0.00;;;0.00;;
46284;SDS011;32018;59.182;18.148;2022-07-17T12:32:14;0.43;;;0.00;;
46284;SDS011;32018;59.182;18.148;2022-07-17T12:34:45;0.00;;;0.00;;
46284;SDS011;32018;59.182;18.148;2022-07-17T12:37:14;0.30;;;0.00;;
46284;SDS011;32018;59.182;18.148;2022-07-17T12:39:39;0.10;;;0.00;;
46284;SDS011;32018;59.182;18.148;2022-07-17T12:42:05;0.30;;;0.30;;
46284;SDS011;32018;59.182;18.148;2022-07-17T12:44:30;0.17;;;0.00;;
46284;SDS011;32018;59.182;18.148;2022-07-17T12:46:55;0.40;;;0.00;;
46284;SDS011;32018;59.182;18.148;2022-07-17T12:49:21;13.55;;;0.30;;
46284;SDS011;32018;59.182;18.148;2022-07-17T12:51:46;1.63;;;0.15;;
46284;SDS011;32018;59.182;18.148;2022-07-17T12:54:11;0.77;;;0.00;;
46284;SDS011;32018;59.182;18.148;2022-07-17T12:56:37;1.17;;;0.00;;
46284;SDS011;32018;59.182;18.148;2022-07-17T12:59:02;0.00;;;0.00;;
46284;SDS011;32018;59.182;18.148;2022-07-17T13:01:27;2.20;;;0.10;;
46284;SDS011;32018;59.182;18.148;2022-07-17T13:03:53;0.47;;;0.00;;
46284;SDS011;32018;59.182;18.148;2022-07-17T13:06:18;1.75;;;0.10;;
46284;SDS011;32018;59.182;18.148;2022-07-17T13:08:43;0.10;;;0.00;;
46284;SDS011;32018;59.182;18.148;2022-07-17T13:11:08;0.98;;;0.10;;
46284;SDS011;32018;59.182;18.148;2022-07-17T13:13:34;1.77;;;0.03;;
46284;SDS011;32018;59.182;18.148;2022-07-17T13:15:59;0.00;;;0.00;;
46284;SDS011;32018;59.182;18.148;2022-07-17T13:18:24;0.03;;;0.00;;
46284;SDS011;32018;59.182;18.148;2022-07-17T13:20:50;1.05;;;0.10;;
46284;SDS011;32018;59.182;18.148;2022-07-17T13:23:15;3.15;;;0.10;;
46284;SDS011;32018;59.182;18.148;2022-07-17T13:25:41;0.00;;;0.00;;
46284;SDS011;32018;59.182;18.148;2022-07-17T13:28:08;0.10;;;0.10;;
46284;SDS011;32018;59.182;18.148;2022-07-17T13:30:34;0.00;;;0.00;;
46284;SDS011;32018;59.182;18.148;2022-07-17T13:32:59;0.00;;;0.00;;
46284;SDS011;32018;59.182;18.148;2022-07-17T13:35:25;0.10;;;0.10;;
46284;SDS011;32018;59.182;18.148;2022-07-17T13:37:50;0.00;;;0.00;;
46284;SDS011;32018;59.182;18.148;2022-07-17T13:40:15;0.22;;;0.22;;
46284;SDS011;32018;59.182;18.148;2022-07-17T13:42:41;0.00;;;0.00;;
46284;SDS011;32018;59.182;18.148;2022-07-17T13:45:06;0.43;;;0.10;;
46284;SDS011;32018;59.182;18.148;2022-07-17T13:47:31;0.20;;;0.00;;
46284;SDS011;32018;59.182;18.148;2022-07-17T13:49:57;0.00;;;0.00;;
46284;SDS011;32018;59.182;18.148;2022-07-17T13:52:22;0.03;;;0.03;;
46284;SDS011;32018;59.182;18.148;2022-07-17T13:54:47;0.00;;;0.00;;
46284;SDS011;32018;59.182;18.148;2022-07-17T13:57:12;0.00;;;0.00;;
46284;SDS011;32018;59.182;18.148;2022-07-17T13:59:38;0.00;;;0.00;;
46284;SDS011;32018;59.182;18.148;2022-07-17T14:02:03;0.00;;;0.00;;
46284;SDS011;32018;59.182;18.148;2022-07-17T14:04:28;0.13;;;0.10;;
46284;SDS011;32018;59.182;18.148;2022-07-17T14:06:53;0.10;;;0.00;;
46284;SDS011;32018;59.182;18.148;2022-07-17T14:09:19;0.00;;;0.00;;
46284;SDS011;32018;59.182;18.148;2022-07-17T14:11:44;0.10;;;0.00;;
46284;SDS011;32018;59.182;18.148;2022-07-17T14:14:09;1.20;;;0.00;;
46284;SDS011;32018;59.182;18.148;2022-07-17T14:16:34;0.65;;;0.00;;
46284;SDS011;32018;59.182;18.148;2022-07-17T14:19:00;0.00;;;0.00;;
46284;SDS011;32018;59.182;18.148;2022-07-17T14:21:30;0.00;;;0.00;;
46284;SDS011;32018;59.182;18.148;2022-07-17T14:23:56;0.00;;;0.00;;
46284;SDS011;32018;59.182;18.148;2022-07-17T14:26:21;0.20;;;0.00;;
46284;SDS011;32018;59.182;18.148;2022-07-17T14:28:46;0.03;;;0.03;;
46284;SDS011;32018;59.182;18.148;2022-07-17T14:31:11;0.10;;;0.10;;
46284;SDS011;32018;59.182;18.148;2022-07-17T14:33:37;0.05;;;0.05;;
46284;SDS011;32018;59.182;18.148;2022-07-17T14:36:02;0.77;;;0.00;;
46284;SDS011;32018;59.182;18.148;2022-07-17T14:38:27;0.43;;;0.10;;
46284;SDS011;32018;59.182;18.148;2022-07-17T14:40:53;0.00;;;0.00;;
46284;SDS011;32018;59.182;18.148;2022-07-17T14:43:18;0.97;;;0.10;;
46284;SDS011;32018;59.182;18.148;2022-07-17T14:45:43;0.10;;;0.00;;
46284;SDS011;32018;59.182;18.148;2022-07-17T14:48:08;0.10;;;0.00;;
46284;SDS011;32018;59.182;18.148;2022-07-17T14:50:34;0.40;;;0.08;;
46284;SDS011;32018;59.182;18.148;2022-07-17T14:52:59;0.00;;;0.00;;
46284;SDS011;32018;59.182;18.148;2022-07-17T14:55:24;0.00;;;0.00;;
46284;SDS011;32018;59.182;18.148;2022-07-17T14:57:50;0.00;;;0.00;;
46284;SDS011;32018;59.182;18.148;2022-07-17T15:00:15;0.10;;;0.00;;
46284;SDS011;32018;59.182;18.148;2022-07-17T15:02:40;0.37;;;0.10;;
46284;SDS011;32018;59.182;18.148;2022-07-17T15:05:06;0.20;;;0.00;;
46284;SDS011;32018;59.182;18.148;2022-07-17T15:07:32;0.25;;;0.10;;
46284;SDS011;32018;59.182;18.148;2022-07-17T15:09:57;0.00;;;0.00;;
46284;SDS011;32018;59.182;18.148;2022-07-17T15:12:22;0.38;;;0.10;;
46284;SDS011;32018;59.182;18.148;2022-07-17T15:14:47;0.50;;;0.50;;
46284;SDS011;32018;59.182;18.148;2022-07-17T15:17:13;0.10;;;0.10;;
46284;SDS011;32018;59.182;18.148;2022-07-17T15:19:38;0.00;;;0.00;;
46284;SDS011;32018;59.182;18.148;2022-07-17T15:22:03;0.00;;;0.00;;
46284;SDS011;32018;59.182;18.148;2022-07-17T15:24:28;0.00;;;0.00;;
46284;SDS011;32018;59.182;18.148;2022-07-17T15:26:54;0.10;;;0.10;;
46284;SDS011;32018;59.182;18.148;2022-07-17T15:29:19;0.33;;;0.33;;
46284;SDS011;32018;59.182;18.148;2022-07-17T15:31:46;0.00;;;0.00;;
46284;SDS011;32018;59.182;18.148;2022-07-17T15:34:11;0.00;;;0.00;;
46284;SDS011;32018;59.182;18.148;2022-07-17T15:36:37;0.00;;;0.00;;
46284;SDS011;32018;59.182;18.148;2022-07-17T15:39:02;0.17;;;0.03;;
46284;SDS011;32018;59.182;18.148;2022-07-17T15:41:28;0.10;;;0.00;;
46284;SDS011;32018;59.182;18.148;2022-07-17T15:43:54;0.00;;;0.00;;
46284;SDS011;32018;59.182;18.148;2022-07-17T15:46:19;0.00;;;0.00;;